Spokane, WA (99216)

9:29 AM PST on December 22, 2014 (GMT -0800)
Broadway Ave | Change Station
CLOSE
Current Station
Personal Weather Station
Location: Veradale, WA
Elevation: 2057 ft
Nearby Weather Stations

Elev 2057 ft 47.66 °N, 117.19 °W | Updated 1 second ago

Clear
Clear
37.0 °F
Feels Like 37 °F
N
0.0
Wind Variable Wind from NNE
Gusts 0.0 mph

Today
High -- | Low -- °F
--% Chance of Precip.
Yesterday
High -- | Low -- °F
Precip. -- in
7:35 AM 4:00 PM
New Moon, 1% visible
Pressure 30.16 in
Visibility 10.0 miles
Clouds Clear
Windchill 37 °F
Dew Point 24 °F
Humidity 58%
Rainfall 0.00 in
Snow Depth Not available.
UV 0 out of 12
Pollen .10 out of 12
Air Quality Not available.
Flu Activity Not available.
METAR KSFF 221653Z 00000KT 10SM CLR 02/M01 A3013 RMK AO2 SLP213 T00221006

More Conditions Fewer Conditions

Pressure 30.16 in
Visibility 10.0 miles
Clouds Clear
Windchill 37 °F
Dew Point 24 °F
Humidity 58%
Rainfall 0.00 in
Snow Depth Not available.
UV 0 out of 12
Pollen .10 out of 12
Air Quality Not available.
Flu Activity Not available.
METAR KSFF 221653Z 00000KT 10SM CLR 02/M01 A3013 RMK AO2 SLP213 T00221006

More Conditions Fewer Conditions

10-Day Weather Forecast

Almanac

Astronomy

Dec. 22, 2014 Rise Set
Actual Time
Civil Twilight
Nautical Twilight
Astronomical Twilight
Moon
Length of Visible Light
Length of Day
Tomorrow will be .
, % of the Moon is Illuminated

Today's Extremes

State Highs State Lows

Community

WunderPhotos

Upload Photos

1,779,653 photos uploaded!

WunderBlogs® & News

Nearby

Air Quality

  Air Quality AQ Index Pollutant
Not available.

Snow Depth

Station Depth Elevation

Earthquake Activity

City Distance Mag. Time & Date
Minimum magnitude displayed is 2.5.

Coastal Water Temperatures

Place Temperature

Nearby Weather Stations